Time;durP1;ratioP1;P1;durP2;ratioP2;P2;SDS_P1;SDS_P2;PMS_P1;PMS_P2;Temp;Humidity;BMP_temperature;BMP_pressure;BME280_temperature;BME280_humidity;BME280_pressure;Samples;Min_cycle;Max_cycle;Signal;HPM_P1;HPM_P2
2024/02/17 00:01:30;;;;;;;;;;;;;;;;;;6309073;28;19923;-79
2024/02/17 00:04:30;;;;;;;;;;;;;;;;;;6319151;28;19916;-79
2024/02/17 00:07:30;;;;;;;;;;;;;;;;;;6296026;28;20293;-79
2024/02/17 00:10:30;;;;;;;;;;;;;;;;;;6300610;28;20364;-76
2024/02/17 00:13:31;;;;;;;;;;;;;;;;;;6309503;28;20343;-77
2024/02/17 00:16:31;;;;;;;;;;;;;;;;;;6311296;28;19912;-77
2024/02/17 00:19:31;;;;;;;;;;;;;;;;;;6337812;28;19957;-77
2024/02/17 00:22:31;;;;;;;;;;;;;;;;;;6319974;28;20369;-77
2024/02/17 00:25:32;;;;;;;;;;;;;;;;;;6316316;28;20381;-78
2024/02/17 00:28:32;;;;;;;;;;;;;;;;;;6313990;28;19919;-78
2024/02/17 00:31:32;;;;;;;;;;;;;;;;;;6294215;28;20371;-78
2024/02/17 00:34:32;;;;;;;;;;;;;;;;;;6293882;28;19983;-78
2024/02/17 00:37:32;;;;;;;;;;;;;;;;;;6294819;28;20272;-78
2024/02/17 00:40:33;;;;;;;;;;;;;;;;;;6297088;28;19919;-78
2024/02/17 00:43:34;;;;;;;;;;;;;;;;;;6311338;28;19919;-78
2024/02/17 00:46:34;;;;;;;;;;;;;;;;;;6320699;28;20006;-78
2024/02/17 00:49:34;;;;;;;;;;;;;;;;;;6302403;28;19911;-77
2024/02/17 00:52:34;;;;;;;;;;;;;;;;;;6320216;28;19908;-78
2024/02/17 00:55:34;;;;;;;;;;;;;;;;;;6319359;28;19908;-78
2024/02/17 00:58:35;;;;;;;;;;;;;;;;;;6319102;28;19908;-78
2024/02/17 01:01:35;;;;;;;;;;;;;;;;;;6313341;28;20268;-76
2024/02/17 01:04:35;;;;;;;;;;;;;;;;;;6300542;28;20394;-76
2024/02/17 01:07:35;;;;;;;;;;;;;;;;;;6323180;28;19915;-76
2024/02/17 01:10:35;;;;;;;;;;;;;;;;;;6322240;28;19961;-76
2024/02/17 01:13:37;;;;;;;;;;;;;;;;;;6322773;28;20396;-76
2024/02/17 01:16:37;;;;;;;;;;;;;;;;;;6321799;28;19923;-75
2024/02/17 01:19:37;;;;;;;;;;;;;;;;;;6316270;28;20303;-75
2024/02/17 01:22:37;;;;;;;;;;;;;;;;;;6301629;28;19922;-76
2024/02/17 01:25:38;;;;;;;;;;;;;;;;;;5961833;28;10000165;-74
2024/02/17 01:28:38;;;;;;;;;;;;;;;;;;6309029;28;19908;-75
2024/02/17 01:31:38;;;;;;;;;;;;;;;;;;6301311;28;19913;-76
2024/02/17 01:34:38;;;;;;;;;;;;;;;;;;6312711;28;19904;-76
2024/02/17 01:37:38;;;;;;;;;;;;;;;;;;6313047;28;19916;-76
2024/02/17 01:40:38;;;;;;;;;;;;;;;;;;6304717;28;20257;-76
2024/02/17 01:43:38;;;;;;;;;;;;;;;;;;6316561;28;20009;-76
2024/02/17 01:46:39;;;;;;;;;;;;;;;;;;6319283;28;19912;-75
2024/02/17 01:49:39;;;;;;;;;;;;;;;;;;6303758;28;19911;-76
2024/02/17 01:52:39;;;;;;;;;;;;;;;;;;6325720;28;19904;-76
2024/02/17 01:55:39;;;;;;;;;;;;;;;;;;6316630;28;19908;-76
2024/02/17 01:58:40;;;;;;;;;;;;;;;;;;6293579;28;19912;-76
2024/02/17 02:01:43;;;;;;;;;;;;;;;;;;6312695;28;20116;-76
2024/02/17 02:04:43;;;;;;;;;;;;;;;;;;6325406;28;20007;-76
2024/02/17 02:07:44;;;;;;;;;;;;;;;;;;6325502;28;19914;-76
2024/02/17 02:10:44;;;;;;;;;;;;;;;;;;6321246;28;20265;-77
2024/02/17 02:13:44;;;;;;;;;;;;;;;;;;6323192;28;20418;-76
2024/02/17 02:16:44;;;;;;;;;;;;;;;;;;6314733;28;19967;-76
2024/02/17 02:19:44;;;;;;;;;;;;;;;;;;6307497;28;19973;-76
2024/02/17 02:22:45;;;;;;;;;;;;;;;;;;6319050;28;19931;-77
2024/02/17 02:25:45;;;;;;;;;;;;;;;;;;6313674;28;19966;-77
2024/02/17 02:28:45;;;;;;;;;;;;;;;;;;6325365;28;19957;-76
2024/02/17 02:31:46;;;;;;;;;;;;;;;;;;6322392;28;20002;-77
2024/02/17 02:34:47;;;;;;;;;;;;;;;;;;6323598;28;20332;-77
2024/02/17 02:37:48;;;;;;;;;;;;;;;;;;6314671;28;19954;-77
2024/02/17 02:40:48;;;;;;;;;;;;;;;;;;6301532;28;19908;-77
2024/02/17 02:43:49;;;;;;;;;;;;;;;;;;6304429;28;19923;-77
2024/02/17 02:46:49;;;;;;;;;;;;;;;;;;6313476;28;19912;-77
2024/02/17 02:49:49;;;;;;;;;;;;;;;;;;6315127;28;19915;-77
2024/02/17 02:52:49;;;;;;;;;;;;;;;;;;6300353;28;19904;-77
2024/02/17 02:55:49;;;;;;;;;;;;;;;;;;6324271;28;19908;-79
2024/02/17 02:58:49;;;;;;;;;;;;;;;;;;6321006;28;19908;-79
2024/02/17 03:01:50;;;;;;;;;;;;;;;;;;6300238;28;20273;-78
2024/02/17 03:04:50;;;;;;;;;;;;;;;;;;6301339;28;19935;-79
2024/02/17 03:07:51;;;;;;;;;;;;;;;;;;6324878;28;19947;-79
2024/02/17 03:10:51;;;;;;;;;;;;;;;;;;6303094;28;19965;-79
2024/02/17 03:13:51;;;;;;;;;;;;;;;;;;6309088;28;19919;-79
2024/02/17 03:16:52;;;;;;;;;;;;;;;;;;6321129;28;19922;-77
2024/02/17 03:19:52;;;;;;;;;;;;;;;;;;6324423;28;19908;-77
2024/02/17 03:22:52;;;;;;;;;;;;;;;;;;6326690;28;19982;-77
2024/02/17 03:25:52;;;;;;;;;;;;;;;;;;6316283;28;19916;-77
2024/02/17 03:28:52;;;;;;;;;;;;;;;;;;6317865;28;19912;-77
2024/02/17 03:31:53;;;;;;;;;;;;;;;;;;6303079;28;20010;-77
2024/02/17 03:34:53;;;;;;;;;;;;;;;;;;6301596;28;19943;-77
2024/02/17 03:37:53;;;;;;;;;;;;;;;;;;6299270;28;19908;-77
2024/02/17 03:40:53;;;;;;;;;;;;;;;;;;6303913;28;20387;-77
2024/02/17 03:43:53;;;;;;;;;;;;;;;;;;6315590;28;20010;-76
2024/02/17 03:46:53;;;;;;;;;;;;;;;;;;6325208;28;19912;-77
2024/02/17 03:49:53;;;;;;;;;;;;;;;;;;6321129;28;20317;-79
2024/02/17 03:52:54;;;;;;;;;;;;;;;;;;6324065;28;19904;-79
2024/02/17 03:55:54;;;;;;;;;;;;;;;;;;6347904;28;19903;-79
2024/02/17 03:58:54;;;;;;;;;;;;;;;;;;6310946;28;19908;-79
2024/02/17 04:01:59;;;;;;;;;;;;;;;;;;6313170;28;20360;-79
2024/02/17 04:04:59;;;;;;;;;;;;;;;;;;6344484;28;19908;-79
2024/02/17 04:07:59;;;;;;;;;;;;;;;;;;6321994;28;19953;-79
2024/02/17 04:11:00;;;;;;;;;;;;;;;;;;6320632;28;19908;-79
2024/02/17 04:14:01;;;;;;;;;;;;;;;;;;6320720;28;20003;-79
2024/02/17 04:17:01;;;;;;;;;;;;;;;;;;6323271;28;19912;-79
2024/02/17 04:20:01;;;;;;;;;;;;;;;;;;6322885;28;20280;-79
2024/02/17 04:23:01;;;;;;;;;;;;;;;;;;6311751;28;19920;-79
2024/02/17 04:26:03;;;;;;;;;;;;;;;;;;6322881;28;19954;-79
2024/02/17 04:29:03;;;;;;;;;;;;;;;;;;6311293;28;20647;-79
2024/02/17 04:32:03;;;;;;;;;;;;;;;;;;6298043;28;19914;-79
2024/02/17 04:35:03;;;;;;;;;;;;;;;;;;6297575;28;19922;-79
2024/02/17 04:38:03;;;;;;;;;;;;;;;;;;6297896;28;20360;-79
2024/02/17 04:41:04;;;;;;;;;;;;;;;;;;6316060;28;19911;-79
2024/02/17 04:44:04;;;;;;;;;;;;;;;;;;6297484;28;19916;-79
2024/02/17 04:47:04;;;;;;;;;;;;;;;;;;6322918;28;20284;-79
2024/02/17 04:50:04;;;;;;;;;;;;;;;;;;6331577;28;20287;-79
2024/02/17 04:53:04;;;;;;;;;;;;;;;;;;6319943;28;19908;-79
2024/02/17 04:56:04;;;;;;;;;;;;;;;;;;6300371;28;20281;-79
2024/02/17 04:59:04;;;;;;;;;;;;;;;;;;6312493;28;20315;-79
2024/02/17 05:02:05;;;;;;;;;;;;;;;;;;6322248;28;20280;-79
2024/02/17 05:05:05;;;;;;;;;;;;;;;;;;6320925;28;19911;-78
2024/02/17 05:08:05;;;;;;;;;;;;;;;;;;6320486;28;20364;-79
2024/02/17 05:11:07;;;;;;;;;;;;;;;;;;6299852;28;20002;-79
2024/02/17 05:14:07;;;;;;;;;;;;;;;;;;6305636;28;19920;-76
2024/02/17 05:17:07;;;;;;;;;;;;;;;;;;6296386;28;19908;-77
2024/02/17 05:20:07;;;;;;;;;;;;;;;;;;6303449;28;19905;-77
2024/02/17 05:23:07;;;;;;;;;;;;;;;;;;6296426;28;19920;-79
2024/02/17 05:26:08;;;;;;;;;;;;;;;;;;6302959;28;19943;-79
2024/02/17 05:29:08;;;;;;;;;;;;;;;;;;6309669;28;19912;-78
2024/02/17 05:32:08;;;;;;;;;;;;;;;;;;6318051;28;19908;-79
2024/02/17 05:35:09;;;;;;;;;;;;;;;;;;6314067;28;19904;-79
2024/02/17 05:38:09;;;;;;;;;;;;;;;;;;6314246;28;19998;-78
2024/02/17 05:41:09;;;;;;;;;;;;;;;;;;6310659;28;21742;-79
2024/02/17 05:44:10;;;;;;;;;;;;;;;;;;6299494;28;20055;-79
2024/02/17 05:47:10;;;;;;;;;;;;;;;;;;6320186;28;19970;-78
2024/02/17 05:50:10;;;;;;;;;;;;;;;;;;6313006;28;19909;-77
2024/02/17 05:53:11;;;;;;;;;;;;;;;;;;6316340;28;19908;-77
2024/02/17 05:56:11;;;;;;;;;;;;;;;;;;6313551;28;19965;-77
2024/02/17 05:59:11;;;;;;;;;;;;;;;;;;6300202;28;19966;-77
2024/02/17 06:02:11;;;;;;;;;;;;;;;;;;6300542;28;20288;-77
2024/02/17 06:05:11;;;;;;;;;;;;;;;;;;6306683;28;20298;-77
2024/02/17 06:08:11;;;;;;;;;;;;;;;;;;6326226;28;19908;-77
2024/02/17 06:11:11;;;;;;;;;;;;;;;;;;6325803;28;19919;-77
2024/02/17 06:14:12;;;;;;;;;;;;;;;;;;6323218;28;20383;-77
2024/02/17 06:17:22;;;;;;;;;;;;;;;;;;6326113;28;19957;-77
2024/02/17 06:23:41;;;;;;;;;;;;;;;;;;6316920;28;19923;-75
2024/02/17 06:26:43;;;;;;;;;;;;;;;;;;6325173;28;20073;-77
2024/02/17 06:29:44;;;;;;;;;;;;;;;;;;6324692;28;19908;-77
2024/02/17 06:32:44;;;;;;;;;;;;;;;;;;6325383;28;19957;-77
2024/02/17 06:35:44;;;;;;;;;;;;;;;;;;6320729;28;19916;-77
2024/02/17 06:38:44;;;;;;;;;;;;;;;;;;6321780;28;19912;-79
2024/02/17 06:41:44;;;;;;;;;;;;;;;;;;6323198;28;19908;-77
2024/02/17 06:44:44;;;;;;;;;;;;;;;;;;6324169;28;19912;-78
2024/02/17 06:47:45;;;;;;;;;;;;;;;;;;6325027;28;19912;-78
2024/02/17 06:50:45;;;;;;;;;;;;;;;;;;6324522;28;19904;-78
2024/02/17 06:53:45;;;;;;;;;;;;;;;;;;6314536;28;20396;-78
2024/02/17 06:56:45;;;;;;;;;;;;;;;;;;6325227;28;19908;-77
2024/02/17 06:59:45;;;;;;;;;;;;;;;;;;6299752;28;19908;-78
2024/02/17 07:02:45;;;;;;;;;;;;;;;;;;6299109;28;19909;-78
2024/02/17 07:05:45;;;;;;;;;;;;;;;;;;6319527;28;19911;-78
2024/02/17 07:08:46;;;;;;;;;;;;;;;;;;6324950;28;19908;-78
2024/02/17 07:11:46;;;;;;;;;;;;;;;;;;6304368;28;19909;-78
2024/02/17 07:14:46;;;;;;;;;;;;;;;;;;6327678;28;20006;-77
2024/02/17 07:17:48;;;;;;;;;;;;;;;;;;6323189;28;19914;-78
2024/02/17 07:20:48;;;;;;;;;;;;;;;;;;6314474;28;19904;-78
2024/02/17 07:23:48;;;;;;;;;;;;;;;;;;6324186;28;19908;-78
2024/02/17 07:26:53;;;;;;;;;;;;;;;;;;6322975;28;19912;-77
2024/02/17 07:29:53;;;;;;;;;;;;;;;;;;6323416;28;19914;-78
2024/02/17 07:32:53;;;;;;;;;;;;;;;;;;6322495;28;19908;-78
2024/02/17 07:35:53;;;;;;;;;;;;;;;;;;6310435;28;19911;-78
2024/02/17 07:38:54;;;;;;;;;;;;;;;;;;6323548;28;19904;-78
2024/02/17 07:41:54;;;;;;;;;;;;;;;;;;6323292;28;19919;-76
2024/02/17 07:44:54;;;;;;;;;;;;;;;;;;6300277;28;19916;-79
2024/02/17 07:47:55;;;;;;;;;;;;;;;;;;6307849;28;19958;-80
2024/02/17 07:50:55;;;;;;;;;;;;;;;;;;6299189;28;19904;-80
2024/02/17 07:53:55;;;;;;;;;;;;;;;;;;6311136;28;19915;-80
2024/02/17 07:56:55;;;;;;;;;;;;;;;;;;6319349;28;19904;-80
2024/02/17 07:59:55;;;;;;;;;;;;;;;;;;6306726;28;19908;-80
2024/02/17 08:02:55;;;;;;;;;;;;;;;;;;6314437;28;19909;-80
2024/02/17 08:05:56;;;;;;;;;;;;;;;;;;6329891;28;19968;-80
2024/02/17 08:08:56;;;;;;;;;;;;;;;;;;6323343;28;19904;-80
2024/02/17 08:11:56;;;;;;;;;;;;;;;;;;6310429;28;19916;-77
2024/02/17 08:14:56;;;;;;;;;;;;;;;;;;6318494;28;19919;-78
2024/02/17 08:17:57;;;;;;;;;;;;;;;;;;6323862;28;19904;-78
2024/02/17 08:20:58;;;;;;;;;;;;;;;;;;6324648;28;19904;-78
2024/02/17 08:23:58;;;;;;;;;;;;;;;;;;6313727;28;19938;-78
2024/02/17 08:26:58;;;;;;;;;;;;;;;;;;6323411;28;19956;-78
2024/02/17 08:29:58;;;;;;;;;;;;;;;;;;6321896;28;19969;-78
2024/02/17 08:32:58;;;;;;;;;;;;;;;;;;6323012;28;19904;-78
2024/02/17 08:35:59;;;;;;;;;;;;;;;;;;6321103;28;19908;-78
2024/02/17 08:38:59;;;;;;;;;;;;;;;;;;6317202;28;20288;-78
2024/02/17 08:41:59;;;;;;;;;;;;;;;;;;6318206;28;20002;-78
2024/02/17 08:44:59;;;;;;;;;;;;;;;;;;6322037;28;19915;-78
2024/02/17 08:47:59;;;;;;;;;;;;;;;;;;6322318;28;19965;-78
2024/02/17 08:51:00;;;;;;;;;;;;;;;;;;6322840;28;19903;-78
2024/02/17 08:54:00;;;;;;;;;;;;;;;;;;6322441;28;19904;-78
2024/02/17 08:57:00;;;;;;;;;;;;;;;;;;6306243;28;19915;-79
2024/02/17 09:00:02;;;;;;;;;;;;;;;;;;6321326;28;19912;-76
2024/02/17 09:03:02;;;;;;;;;;;;;;;;;;6297748;28;19920;-78
2024/02/17 09:06:03;;;;;;;;;;;;;;;;;;6307700;28;19923;-77
2024/02/17 09:09:03;;;;;;;;;;;;;;;;;;6321414;28;19912;-77
2024/02/17 09:12:03;;;;;;;;;;;;;;;;;;6308495;28;19909;-76
2024/02/17 09:15:03;;;;;;;;;;;;;;;;;;6318428;28;20002;-77
2024/02/17 09:18:03;;;;;;;;;;;;;;;;;;6321759;28;20406;-79
2024/02/17 09:21:04;;;;;;;;;;;;;;;;;;6307572;28;19904;-79
2024/02/17 09:24:04;;;;;;;;;;;;;;;;;;6312369;28;19916;-78
2024/02/17 09:27:04;;;;;;;;;;;;;;;;;;6317358;28;19948;-78
2024/02/17 09:30:05;;;;;;;;;;;;;;;;;;6310781;28;19990;-75
2024/02/17 09:33:05;;;;;;;;;;;;;;;;;;6323301;28;20273;-75
2024/02/17 09:36:06;;;;;;;;;;;;;;;;;;6326657;28;19904;-76
2024/02/17 09:39:06;;;;;;;;;;;;;;;;;;6330175;28;19911;-76
2024/02/17 09:42:06;;;;;;;;;;;;;;;;;;6331252;28;19999;-76
2024/02/17 09:45:06;;;;;;;;;;;;;;;;;;6326050;28;19908;-76
2024/02/17 09:48:06;;;;;;;;;;;;;;;;;;6314228;28;19908;-76
2024/02/17 09:51:06;;;;;;;;;;;;;;;;;;6324037;28;19911;-77
2024/02/17 09:54:07;;;;;;;;;;;;;;;;;;6314997;28;19931;-77
2024/02/17 09:57:07;;;;;;;;;;;;;;;;;;6309640;28;19951;-77
2024/02/17 10:00:09;;;;;;;;;;;;;;;;;;6308020;28;20353;-76
2024/02/17 10:03:10;;;;;;;;;;;;;;;;;;6336968;28;19923;-77
2024/02/17 10:06:10;;;;;;;;;;;;;;;;;;6321592;28;20003;-78
2024/02/17 10:09:10;;;;;;;;;;;;;;;;;;6322443;28;20391;-78
2024/02/17 10:12:13;;;;;;;;;;;;;;;;;;6325698;28;20356;-77
2024/02/17 10:15:13;;;;;;;;;;;;;;;;;;6320722;28;19954;-78
2024/02/17 10:18:14;;;;;;;;;;;;;;;;;;6312012;28;19916;-78
2024/02/17 10:21:14;;;;;;;;;;;;;;;;;;6309140;28;20365;-78
2024/02/17 10:24:14;;;;;;;;;;;;;;;;;;6309922;28;19919;-77
2024/02/17 10:27:14;;;;;;;;;;;;;;;;;;6300550;28;19915;-77
2024/02/17 10:30:16;;;;;;;;;;;;;;;;;;6314203;28;19976;-80
2024/02/17 10:33:16;;;;;;;;;;;;;;;;;;6324212;28;19998;-80
2024/02/17 10:36:18;;;;;;;;;;;;;;;;;;6325681;28;19914;-77
2024/02/17 10:39:18;;;;;;;;;;;;;;;;;;6308343;28;19943;-79
2024/02/17 10:42:18;;;;;;;;;;;;;;;;;;6306952;28;19916;-79
2024/02/17 10:45:18;;;;;;;;;;;;;;;;;;6311414;28;19934;-81
2024/02/17 10:48:18;;;;;;;;;;;;;;;;;;6301606;28;19931;-79
2024/02/17 10:51:18;;;;;;;;;;;;;;;;;;6314276;28;20624;-79
2024/02/17 10:54:18;;;;;;;;;;;;;;;;;;6324543;28;20314;-79
2024/02/17 10:57:18;;;;;;;;;;;;;;;;;;6325697;28;19999;-79
2024/02/17 11:00:19;;;;;;;;;;;;;;;;;;6324592;28;20269;-79
2024/02/17 11:03:19;;;;;;;;;;;;;;;;;;6308135;28;20007;-79
2024/02/17 11:06:19;;;;;;;;;;;;;;;;;;6300496;28;19963;-79
2024/02/17 11:09:19;;;;;;;;;;;;;;;;;;6321954;28;20009;-79
2024/02/17 11:12:20;;;;;;;;;;;;;;;;;;6323271;28;20803;-79
2024/02/17 11:15:20;;;;;;;;;;;;;;;;;;6327773;28;19912;-80
2024/02/17 11:18:20;;;;;;;;;;;;;;;;;;6308654;28;19927;-79
2024/02/17 11:21:20;;;;;;;;;;;;;;;;;;6317951;28;19976;-79
2024/02/17 11:24:20;;;;;;;;;;;;;;;;;;6325726;28;19914;-79
2024/02/17 11:27:20;;;;;;;;;;;;;;;;;;6324212;28;19918;-79
2024/02/17 11:30:20;;;;;;;;;;;;;;;;;;6309954;28;19908;-79
2024/02/17 11:33:23;;;;;;;;;;;;;;;;;;6321185;28;20265;-80
2024/02/17 11:36:23;;;;;;;;;;;;;;;;;;6323683;28;19907;-78
2024/02/17 11:39:24;;;;;;;;;;;;;;;;;;6313339;28;19916;-80
2024/02/17 11:42:24;;;;;;;;;;;;;;;;;;6298346;28;19920;-80
2024/02/17 11:45:25;;;;;;;;;;;;;;;;;;6306985;28;20008;-79
2024/02/17 11:48:27;;;;;;;;;;;;;;;;;;6316676;28;19908;-78
2024/02/17 11:51:28;;;;;;;;;;;;;;;;;;6323524;28;20114;-78
2024/02/17 11:54:29;;;;;;;;;;;;;;;;;;6323722;28;19904;-78
2024/02/17 11:57:29;;;;;;;;;;;;;;;;;;6323601;28;19911;-77
2024/02/17 12:00:29;;;;;;;;;;;;;;;;;;6319400;28;19998;-77
2024/02/17 12:03:29;;;;;;;;;;;;;;;;;;6309801;28;19919;-78
2024/02/17 12:06:29;;;;;;;;;;;;;;;;;;6296667;28;20078;-77
2024/02/17 12:09:29;;;;;;;;;;;;;;;;;;6310485;28;19908;-79
2024/02/17 12:12:29;;;;;;;;;;;;;;;;;;6322947;28;19916;-78
2024/02/17 12:15:30;;;;;;;;;;;;;;;;;;6304086;28;19908;-78
2024/02/17 12:18:30;;;;;;;;;;;;;;;;;;6298682;28;19904;-78
2024/02/17 12:21:30;;;;;;;;;;;;;;;;;;6319918;28;19908;-78
2024/02/17 12:24:30;;;;;;;;;;;;;;;;;;6312378;28;19963;-79
2024/02/17 12:27:30;;;;;;;;;;;;;;;;;;6319817;28;20015;-78
2024/02/17 12:30:31;;;;;;;;;;;;;;;;;;6322001;28;20315;-78
2024/02/17 12:33:31;;;;;;;;;;;;;;;;;;6323563;28;19927;-77
2024/02/17 12:36:31;;;;;;;;;;;;;;;;;;6321409;28;20276;-78
2024/02/17 12:39:31;;;;;;;;;;;;;;;;;;6320604;28;20260;-78
2024/02/17 12:42:31;;;;;;;;;;;;;;;;;;6325574;28;19916;-78
2024/02/17 12:45:35;;;;;;;;;;;;;;;;;;6322616;28;19911;-78
2024/02/17 12:48:35;;;;;;;;;;;;;;;;;;6322688;28;19926;-79
2024/02/17 12:51:37;;;;;;;;;;;;;;;;;;6323272;28;19993;-78
2024/02/17 12:54:37;;;;;;;;;;;;;;;;;;6324160;28;19978;-78
2024/02/17 12:57:37;;;;;;;;;;;;;;;;;;6310236;28;20262;-79
2024/02/17 13:00:37;;;;;;;;;;;;;;;;;;6324717;28;19908;-78
2024/02/17 13:03:38;;;;;;;;;;;;;;;;;;6328201;28;20272;-78
2024/02/17 13:06:38;;;;;;;;;;;;;;;;;;6325965;28;19977;-78
2024/02/17 13:09:38;;;;;;;;;;;;;;;;;;6329919;28;19912;-79
2024/02/17 13:12:38;;;;;;;;;;;;;;;;;;6330037;28;20256;-78
2024/02/17 13:15:39;;;;;;;;;;;;;;;;;;6332800;28;20443;-78
2024/02/17 13:18:39;;;;;;;;;;;;;;;;;;6328803;28;19944;-79
2024/02/17 13:21:39;;;;;;;;;;;;;;;;;;6322988;28;19991;-78
2024/02/17 13:24:41;;;;;;;;;;;;;;;;;;6327361;28;19908;-79
2024/02/17 13:27:42;;;;;;;;;;;;;;;;;;6325971;28;19908;-78
2024/02/17 13:30:43;;;;;;;;;;;;;;;;;;6324632;28;19923;-78
2024/02/17 13:33:43;;;;;;;;;;;;;;;;;;6326521;28;20348;-79
2024/02/17 13:36:43;;;;;;;;;;;;;;;;;;6332836;28;19907;-79
2024/02/17 13:39:43;;;;;;;;;;;;;;;;;;6351305;28;19931;-79
2024/02/17 13:42:43;;;;;;;;;;;;;;;;;;6330172;28;20318;-79
2024/02/17 13:45:43;;;;;;;;;;;;;;;;;;6310204;28;19958;-79
2024/02/17 13:48:44;;;;;;;;;;;;;;;;;;6301670;28;20222;-79
2024/02/17 13:51:44;;;;;;;;;;;;;;;;;;6301853;28;19911;-78
2024/02/17 13:54:44;;;;;;;;;;;;;;;;;;6301750;28;19904;-79
2024/02/17 13:57:44;;;;;;;;;;;;;;;;;;6313109;28;19911;-79
2024/02/17 14:00:44;;;;;;;;;;;;;;;;;;6324208;28;20069;-79
2024/02/17 14:03:45;;;;;;;;;;;;;;;;;;6324665;28;20340;-79
2024/02/17 14:06:45;;;;;;;;;;;;;;;;;;6326325;28;19961;-79
2024/02/17 14:09:45;;;;;;;;;;;;;;;;;;6326128;28;19973;-79
2024/02/17 14:12:45;;;;;;;;;;;;;;;;;;6324537;28;19939;-78
2024/02/17 14:15:45;;;;;;;;;;;;;;;;;;6323359;28;20261;-78
2024/02/17 14:18:45;;;;;;;;;;;;;;;;;;6324467;28;19958;-78
2024/02/17 14:21:46;;;;;;;;;;;;;;;;;;6326723;28;19908;-79
2024/02/17 14:24:46;;;;;;;;;;;;;;;;;;6326010;28;19908;-79
2024/02/17 14:27:46;;;;;;;;;;;;;;;;;;6325240;28;19907;-79
2024/02/17 14:30:46;;;;;;;;;;;;;;;;;;6305110;28;19904;-79
2024/02/17 14:33:46;;;;;;;;;;;;;;;;;;6314003;28;19908;-79
2024/02/17 14:36:46;;;;;;;;;;;;;;;;;;6331397;28;19912;-79
2024/02/17 14:39:46;;;;;;;;;;;;;;;;;;6351254;28;19904;-79
2024/02/17 14:42:47;;;;;;;;;;;;;;;;;;6335666;28;20318;-79
2024/02/17 14:45:47;;;;;;;;;;;;;;;;;;6324783;28;20030;-79
2024/02/17 14:48:47;;;;;;;;;;;;;;;;;;6324806;28;19911;-79
2024/02/17 14:51:48;;;;;;;;;;;;;;;;;;6324068;28;19955;-79
2024/02/17 14:54:49;;;;;;;;;;;;;;;;;;6301076;28;19915;-79
2024/02/17 14:57:49;;;;;;;;;;;;;;;;;;6310052;28;20365;-79
2024/02/17 15:00:49;;;;;;;;;;;;;;;;;;6317394;28;20404;-79
2024/02/17 15:03:49;;;;;;;;;;;;;;;;;;6322808;28;19912;-79
2024/02/17 15:06:49;;;;;;;;;;;;;;;;;;6323599;28;19916;-79
2024/02/17 15:09:49;;;;;;;;;;;;;;;;;;6324417;28;19918;-78
2024/02/17 15:12:49;;;;;;;;;;;;;;;;;;6312289;28;20304;-78
2024/02/17 15:15:51;;;;;;;;;;;;;;;;;;6322861;28;19935;-78
2024/02/17 15:18:51;;;;;;;;;;;;;;;;;;6321503;28;19912;-78
2024/02/17 15:21:51;;;;;;;;;;;;;;;;;;6325286;28;19910;-78
2024/02/17 15:24:51;;;;;;;;;;;;;;;;;;6324738;28;19908;-77
2024/02/17 15:27:51;;;;;;;;;;;;;;;;;;6308187;28;19909;-77
2024/02/17 15:30:52;;;;;;;;;;;;;;;;;;6306247;28;19929;-77
2024/02/17 15:33:52;;;;;;;;;;;;;;;;;;6322126;28;19919;-79
2024/02/17 15:36:52;;;;;;;;;;;;;;;;;;6329159;28;20073;-78
2024/02/17 15:39:52;;;;;;;;;;;;;;;;;;6298653;28;19908;-79
2024/02/17 15:42:52;;;;;;;;;;;;;;;;;;6299479;28;19922;-78
2024/02/17 15:45:52;;;;;;;;;;;;;;;;;;6327244;28;19917;-77
2024/02/17 15:48:53;;;;;;;;;;;;;;;;;;6313414;28;19947;-77
2024/02/17 15:51:54;;;;;;;;;;;;;;;;;;6323922;28;19904;-77
2024/02/17 15:54:54;;;;;;;;;;;;;;;;;;6308156;28;19969;-77
2024/02/17 15:57:54;;;;;;;;;;;;;;;;;;6303567;28;19911;-78
2024/02/17 16:00:57;;;;;;;;;;;;;;;;;;6319785;28;19912;-76
2024/02/17 16:03:57;;;;;;;;;;;;;;;;;;6322840;28;20261;-77
2024/02/17 16:06:58;;;;;;;;;;;;;;;;;;6318451;28;19912;-78
2024/02/17 16:09:58;;;;;;;;;;;;;;;;;;6308818;28;20383;-76
2024/02/17 16:12:58;;;;;;;;;;;;;;;;;;6306595;28;19915;-77
2024/02/17 16:15:59;;;;;;;;;;;;;;;;;;6312929;28;19908;-77
2024/02/17 16:18:59;;;;;;;;;;;;;;;;;;6321117;28;20360;-76
2024/02/17 16:21:59;;;;;;;;;;;;;;;;;;6312633;28;19961;-78
2024/02/17 16:24:59;;;;;;;;;;;;;;;;;;6323408;28;19908;-77
2024/02/17 16:27:59;;;;;;;;;;;;;;;;;;6306069;28;19908;-78
2024/02/17 16:31:00;;;;;;;;;;;;;;;;;;6298179;28;19904;-77
2024/02/17 16:34:02;;;;;;;;;;;;;;;;;;6321188;28;20341;-76
2024/02/17 16:37:02;;;;;;;;;;;;;;;;;;6313282;28;19957;-77
2024/02/17 16:40:04;;;;;;;;;;;;;;;;;;6323492;28;19911;-76
2024/02/17 16:43:05;;;;;;;;;;;;;;;;;;6296892;28;19908;-77
2024/02/17 16:46:05;;;;;;;;;;;;;;;;;;6318551;28;19935;-77
2024/02/17 16:49:06;;;;;;;;;;;;;;;;;;6297421;28;19909;-77
2024/02/17 16:52:06;;;;;;;;;;;;;;;;;;6319512;28;19907;-77
2024/02/17 16:55:06;;;;;;;;;;;;;;;;;;6317865;28;19909;-77
2024/02/17 16:58:09;;;;;;;;;;;;;;;;;;6306731;28;19908;-77
2024/02/17 17:01:09;;;;;;;;;;;;;;;;;;6296682;28;19904;-77
2024/02/17 17:04:10;;;;;;;;;;;;;;;;;;6307962;28;19908;-78
2024/02/17 17:07:10;;;;;;;;;;;;;;;;;;6312700;28;19908;-77
2024/02/17 17:10:10;;;;;;;;;;;;;;;;;;6321742;28;19907;-77
2024/02/17 17:13:10;;;;;;;;;;;;;;;;;;6329367;28;19916;-77
2024/02/17 17:16:10;;;;;;;;;;;;;;;;;;6305378;28;19920;-77
2024/02/17 17:19:10;;;;;;;;;;;;;;;;;;6310317;28;20276;-77
2024/02/17 17:22:11;;;;;;;;;;;;;;;;;;6322592;28;19904;-78
2024/02/17 17:25:11;;;;;;;;;;;;;;;;;;6321541;28;19908;-76
2024/02/17 17:28:11;;;;;;;;;;;;;;;;;;6295671;28;19908;-76
2024/02/17 17:31:11;;;;;;;;;;;;;;;;;;6296554;28;19905;-75
2024/02/17 17:34:12;;;;;;;;;;;;;;;;;;6296217;28;19905;-77
2024/02/17 17:37:12;;;;;;;;;;;;;;;;;;6306545;28;19908;-77
2024/02/17 17:40:12;;;;;;;;;;;;;;;;;;6322685;28;19957;-75
2024/02/17 17:43:12;;;;;;;;;;;;;;;;;;6320346;28;19919;-77
2024/02/17 17:46:12;;;;;;;;;;;;;;;;;;6296787;28;19919;-75
2024/02/17 17:49:12;;;;;;;;;;;;;;;;;;6299344;28;20261;-75
2024/02/17 17:52:12;;;;;;;;;;;;;;;;;;6316354;28;19908;-75
2024/02/17 17:55:12;;;;;;;;;;;;;;;;;;6318847;28;19961;-76
2024/02/17 17:58:13;;;;;;;;;;;;;;;;;;6325342;28;19986;-76
2024/02/17 18:01:13;;;;;;;;;;;;;;;;;;6312388;28;19915;-75
2024/02/17 18:04:13;;;;;;;;;;;;;;;;;;6325170;28;19912;-76
2024/02/17 18:07:13;;;;;;;;;;;;;;;;;;6328021;28;19912;-76
2024/02/17 18:10:13;;;;;;;;;;;;;;;;;;6328304;28;19954;-76
2024/02/17 18:13:15;;;;;;;;;;;;;;;;;;6324289;28;19922;-76
2024/02/17 18:16:18;;;;;;;;;;;;;;;;;;6308377;28;20007;-76
2024/02/17 18:19:18;;;;;;;;;;;;;;;;;;6303476;28;19904;-80
2024/02/17 18:22:19;;;;;;;;;;;;;;;;;;6317429;28;19926;-80
2024/02/17 18:25:19;;;;;;;;;;;;;;;;;;6306495;28;19916;-79
2024/02/17 18:28:19;;;;;;;;;;;;;;;;;;6315069;28;19908;-78
2024/02/17 18:31:20;;;;;;;;;;;;;;;;;;6309071;28;19908;-77
2024/02/17 18:34:21;;;;;;;;;;;;;;;;;;6311919;28;19952;-77
2024/02/17 18:37:21;;;;;;;;;;;;;;;;;;6301107;28;20377;-78
2024/02/17 18:40:21;;;;;;;;;;;;;;;;;;6301078;28;19912;-78
2024/02/17 18:43:21;;;;;;;;;;;;;;;;;;6301445;28;19909;-77
2024/02/17 18:46:21;;;;;;;;;;;;;;;;;;6323671;28;19916;-77
2024/02/17 18:49:21;;;;;;;;;;;;;;;;;;6309215;28;19926;-78
2024/02/17 18:52:27;;;;;;;;;;;;;;;;;;6312056;28;19926;-80
2024/02/17 18:55:28;;;;;;;;;;;;;;;;;;6303394;28;19908;-79
2024/02/17 18:58:28;;;;;;;;;;;;;;;;;;6305747;28;19915;-80
2024/02/17 19:01:28;;;;;;;;;;;;;;;;;;6322619;28;19931;-79
2024/02/17 19:04:28;;;;;;;;;;;;;;;;;;6320260;28;19959;-80
2024/02/17 19:07:28;;;;;;;;;;;;;;;;;;6303958;28;19912;-78
2024/02/17 19:10:28;;;;;;;;;;;;;;;;;;6301562;28;19909;-79
2024/02/17 19:13:28;;;;;;;;;;;;;;;;;;6318100;28;19924;-80
2024/02/17 19:16:29;;;;;;;;;;;;;;;;;;6315942;28;19912;-80
2024/02/17 19:19:29;;;;;;;;;;;;;;;;;;6319566;28;19911;-80
2024/02/17 19:22:30;;;;;;;;;;;;;;;;;;6310038;28;20280;-80
2024/02/17 19:25:30;;;;;;;;;;;;;;;;;;6322685;28;19912;-79
2024/02/17 19:28:30;;;;;;;;;;;;;;;;;;6322948;28;19908;-80
2024/02/17 19:31:30;;;;;;;;;;;;;;;;;;6301282;28;19911;-80
2024/02/17 19:34:30;;;;;;;;;;;;;;;;;;6307342;28;19908;-79
2024/02/17 19:37:31;;;;;;;;;;;;;;;;;;6331847;28;19915;-80
2024/02/17 19:40:34;;;;;;;;;;;;;;;;;;6328748;28;20002;-80
2024/02/17 19:43:35;;;;;;;;;;;;;;;;;;6321155;28;20350;-80
2024/02/17 19:46:35;;;;;;;;;;;;;;;;;;6301537;28;19909;-79
2024/02/17 19:49:35;;;;;;;;;;;;;;;;;;6307073;28;19916;-78
2024/02/17 19:52:36;;;;;;;;;;;;;;;;;;6318908;28;19908;-80
2024/02/17 19:55:36;;;;;;;;;;;;;;;;;;6316599;28;19916;-78
2024/02/17 19:58:37;;;;;;;;;;;;;;;;;;6320895;28;19953;-79
2024/02/17 20:01:37;;;;;;;;;;;;;;;;;;6300713;28;20093;-78
2024/02/17 20:04:37;;;;;;;;;;;;;;;;;;6313672;28;20295;-78
2024/02/17 20:07:39;;;;;;;;;;;;;;;;;;6307759;28;19913;-78
2024/02/17 20:10:40;;;;;;;;;;;;;;;;;;6313453;28;19909;-78
2024/02/17 20:13:41;;;;;;;;;;;;;;;;;;6308037;28;19966;-78
2024/02/17 20:16:41;;;;;;;;;;;;;;;;;;6317397;28;19908;-77
2024/02/17 20:19:44;;;;;;;;;;;;;;;;;;6315061;28;19914;-76
2024/02/17 20:22:44;;;;;;;;;;;;;;;;;;6302788;28;19919;-78
2024/02/17 20:25:44;;;;;;;;;;;;;;;;;;6307594;28;19911;-78
2024/02/17 20:28:45;;;;;;;;;;;;;;;;;;6303648;28;19905;-78
2024/02/17 20:31:45;;;;;;;;;;;;;;;;;;6316636;28;20308;-78
2024/02/17 20:34:45;;;;;;;;;;;;;;;;;;6316802;28;19922;-78